sensor_id;sensor_type;location;lat;lon;timestamp;P1;durP1;ratioP1;P2;durP2;ratioP2
3663;SDS011;1848;51.042;7.066;2022-08-19T00:01:45;16.57;;;14.90;;
3663;SDS011;1848;51.042;7.066;2022-08-19T00:04:19;16.27;;;14.77;;
3663;SDS011;1848;51.042;7.066;2022-08-19T00:06:47;15.97;;;14.47;;
3663;SDS011;1848;51.042;7.066;2022-08-19T00:09:15;16.77;;;15.17;;
3663;SDS011;1848;51.042;7.066;2022-08-19T00:11:43;16.27;;;14.83;;
3663;SDS011;1848;51.042;7.066;2022-08-19T00:14:10;15.63;;;14.13;;
3663;SDS011;1848;51.042;7.066;2022-08-19T00:16:40;16.37;;;14.87;;
3663;SDS011;1848;51.042;7.066;2022-08-19T00:19:08;16.17;;;14.77;;
3663;SDS011;1848;51.042;7.066;2022-08-19T00:21:35;15.37;;;14.07;;
3663;SDS011;1848;51.042;7.066;2022-08-19T00:24:06;15.37;;;13.97;;
3663;SDS011;1848;51.042;7.066;2022-08-19T00:26:35;15.43;;;14.23;;
3663;SDS011;1848;51.042;7.066;2022-08-19T00:29:03;15.73;;;14.53;;
3663;SDS011;1848;51.042;7.066;2022-08-19T00:31:31;16.90;;;15.30;;
3663;SDS011;1848;51.042;7.066;2022-08-19T00:33:58;17.37;;;15.97;;
3663;SDS011;1848;51.042;7.066;2022-08-19T00:36:25;16.83;;;15.33;;
3663;SDS011;1848;51.042;7.066;2022-08-19T00:38:51;16.53;;;15.30;;
3663;SDS011;1848;51.042;7.066;2022-08-19T00:41:19;18.30;;;16.77;;
3663;SDS011;1848;51.042;7.066;2022-08-19T00:44:04;19.37;;;17.47;;
3663;SDS011;1848;51.042;7.066;2022-08-19T00:46:31;18.27;;;16.57;;
3663;SDS011;1848;51.042;7.066;2022-08-19T00:49:00;17.97;;;16.53;;
3663;SDS011;1848;51.042;7.066;2022-08-19T00:51:28;18.47;;;16.87;;
3663;SDS011;1848;51.042;7.066;2022-08-19T00:53:58;18.57;;;16.90;;
3663;SDS011;1848;51.042;7.066;2022-08-19T00:56:27;17.63;;;16.20;;
3663;SDS011;1848;51.042;7.066;2022-08-19T00:58:54;17.67;;;16.10;;
3663;SDS011;1848;51.042;7.066;2022-08-19T01:01:22;18.47;;;16.93;;
3663;SDS011;1848;51.042;7.066;2022-08-19T01:03:48;18.13;;;16.43;;
3663;SDS011;1848;51.042;7.066;2022-08-19T01:06:23;18.07;;;16.67;;
3663;SDS011;1848;51.042;7.066;2022-08-19T01:08:51;18.27;;;16.60;;
3663;SDS011;1848;51.042;7.066;2022-08-19T01:11:17;18.87;;;17.37;;
3663;SDS011;1848;51.042;7.066;2022-08-19T01:13:44;18.50;;;16.90;;
3663;SDS011;1848;51.042;7.066;2022-08-19T01:16:15;19.20;;;17.50;;
3663;SDS011;1848;51.042;7.066;2022-08-19T01:18:43;17.67;;;15.93;;
3663;SDS011;1848;51.042;7.066;2022-08-19T01:23:48;17.90;;;16.50;;
3663;SDS011;1848;51.042;7.066;2022-08-19T01:26:16;18.93;;;17.43;;
3663;SDS011;1848;51.042;7.066;2022-08-19T01:28:45;20.00;;;18.30;;
3663;SDS011;1848;51.042;7.066;2022-08-19T01:31:14;20.80;;;19.00;;
3663;SDS011;1848;51.042;7.066;2022-08-19T01:33:53;18.70;;;17.20;;
3663;SDS011;1848;51.042;7.066;2022-08-19T01:36:26;19.27;;;17.57;;
3663;SDS011;1848;51.042;7.066;2022-08-19T01:38:55;19.50;;;17.90;;
3663;SDS011;1848;51.042;7.066;2022-08-19T01:41:22;20.20;;;18.43;;
3663;SDS011;1848;51.042;7.066;2022-08-19T01:43:49;18.67;;;17.07;;
3663;SDS011;1848;51.042;7.066;2022-08-19T01:46:37;18.50;;;16.90;;
3663;SDS011;1848;51.042;7.066;2022-08-19T01:49:04;20.27;;;18.57;;
3663;SDS011;1848;51.042;7.066;2022-08-19T01:51:32;19.50;;;17.70;;
3663;SDS011;1848;51.042;7.066;2022-08-19T01:54:05;22.10;;;18.60;;
3663;SDS011;1848;51.042;7.066;2022-08-19T01:56:32;20.47;;;18.70;;
3663;SDS011;1848;51.042;7.066;2022-08-19T01:59:00;19.77;;;18.07;;
3663;SDS011;1848;51.042;7.066;2022-08-19T02:01:29;20.87;;;19.00;;
3663;SDS011;1848;51.042;7.066;2022-08-19T02:03:58;18.67;;;17.07;;
3663;SDS011;1848;51.042;7.066;2022-08-19T02:06:26;18.83;;;17.27;;
3663;SDS011;1848;51.042;7.066;2022-08-19T02:08:54;18.53;;;17.10;;
3663;SDS011;1848;51.042;7.066;2022-08-19T02:11:29;19.30;;;17.70;;
3663;SDS011;1848;51.042;7.066;2022-08-19T02:14:03;20.23;;;18.53;;
3663;SDS011;1848;51.042;7.066;2022-08-19T02:16:31;18.33;;;16.80;;
3663;SDS011;1848;51.042;7.066;2022-08-19T02:18:58;18.37;;;16.77;;
3663;SDS011;1848;51.042;7.066;2022-08-19T02:21:28;20.20;;;18.20;;
3663;SDS011;1848;51.042;7.066;2022-08-19T02:23:55;18.67;;;17.07;;
3663;SDS011;1848;51.042;7.066;2022-08-19T02:26:22;17.97;;;16.40;;
3663;SDS011;1848;51.042;7.066;2022-08-19T02:28:49;17.47;;;15.97;;
3663;SDS011;1848;51.042;7.066;2022-08-19T02:31:17;20.70;;;18.80;;
3663;SDS011;1848;51.042;7.066;2022-08-19T02:33:46;18.43;;;16.83;;
3663;SDS011;1848;51.042;7.066;2022-08-19T02:36:14;17.70;;;15.93;;
3663;SDS011;1848;51.042;7.066;2022-08-19T02:38:46;18.53;;;16.83;;
3663;SDS011;1848;51.042;7.066;2022-08-19T02:41:22;19.67;;;17.73;;
3663;SDS011;1848;51.042;7.066;2022-08-19T02:43:52;19.20;;;17.50;;
3663;SDS011;1848;51.042;7.066;2022-08-19T02:46:38;20.40;;;18.50;;
3663;SDS011;1848;51.042;7.066;2022-08-19T02:49:06;19.90;;;18.10;;
3663;SDS011;1848;51.042;7.066;2022-08-19T02:51:38;19.80;;;18.00;;
3663;SDS011;1848;51.042;7.066;2022-08-19T02:54:08;19.43;;;17.73;;
3663;SDS011;1848;51.042;7.066;2022-08-19T02:56:36;19.67;;;18.00;;
3663;SDS011;1848;51.042;7.066;2022-08-19T02:59:04;19.07;;;17.07;;
3663;SDS011;1848;51.042;7.066;2022-08-19T03:01:36;19.60;;;17.83;;
3663;SDS011;1848;51.042;7.066;2022-08-19T03:04:03;20.10;;;18.30;;
3663;SDS011;1848;51.042;7.066;2022-08-19T03:06:31;20.53;;;18.63;;
3663;SDS011;1848;51.042;7.066;2022-08-19T03:09:02;20.63;;;18.60;;
3663;SDS011;1848;51.042;7.066;2022-08-19T03:11:29;21.00;;;19.20;;
3663;SDS011;1848;51.042;7.066;2022-08-19T03:13:57;19.03;;;17.40;;
3663;SDS011;1848;51.042;7.066;2022-08-19T03:16:26;20.37;;;18.47;;
3663;SDS011;1848;51.042;7.066;2022-08-19T03:18:59;19.80;;;17.93;;
3663;SDS011;1848;51.042;7.066;2022-08-19T03:21:30;19.23;;;17.63;;
3663;SDS011;1848;51.042;7.066;2022-08-19T03:24:00;20.13;;;18.30;;
3663;SDS011;1848;51.042;7.066;2022-08-19T03:26:29;18.43;;;16.73;;
3663;SDS011;1848;51.042;7.066;2022-08-19T03:28:56;18.23;;;16.53;;
3663;SDS011;1848;51.042;7.066;2022-08-19T03:31:25;19.40;;;17.53;;
3663;SDS011;1848;51.042;7.066;2022-08-19T03:34:12;18.37;;;16.60;;
3663;SDS011;1848;51.042;7.066;2022-08-19T03:36:41;18.43;;;16.93;;
3663;SDS011;1848;51.042;7.066;2022-08-19T03:39:09;18.90;;;17.33;;
3663;SDS011;1848;51.042;7.066;2022-08-19T03:41:36;19.20;;;17.30;;
3663;SDS011;1848;51.042;7.066;2022-08-19T03:44:15;19.80;;;18.00;;
3663;SDS011;1848;51.042;7.066;2022-08-19T03:46:48;19.40;;;17.60;;
3663;SDS011;1848;51.042;7.066;2022-08-19T03:49:18;20.70;;;18.70;;
3663;SDS011;1848;51.042;7.066;2022-08-19T03:51:46;21.00;;;19.10;;
3663;SDS011;1848;51.042;7.066;2022-08-19T03:54:14;20.33;;;18.50;;
3663;SDS011;1848;51.042;7.066;2022-08-19T03:56:43;20.40;;;18.47;;
3663;SDS011;1848;51.042;7.066;2022-08-19T03:59:13;20.37;;;18.57;;
3663;SDS011;1848;51.042;7.066;2022-08-19T04:01:43;20.47;;;18.50;;
3663;SDS011;1848;51.042;7.066;2022-08-19T04:04:10;20.70;;;18.80;;
3663;SDS011;1848;51.042;7.066;2022-08-19T04:06:37;20.90;;;18.90;;
3663;SDS011;1848;51.042;7.066;2022-08-19T04:09:06;21.10;;;19.00;;
3663;SDS011;1848;51.042;7.066;2022-08-19T04:11:38;22.37;;;20.37;;
3663;SDS011;1848;51.042;7.066;2022-08-19T04:14:10;23.00;;;20.90;;
3663;SDS011;1848;51.042;7.066;2022-08-19T04:16:38;21.00;;;19.10;;
3663;SDS011;1848;51.042;7.066;2022-08-19T04:19:05;22.00;;;19.90;;
3663;SDS011;1848;51.042;7.066;2022-08-19T04:21:32;20.90;;;18.80;;
3663;SDS011;1848;51.042;7.066;2022-08-19T04:23:59;21.20;;;19.13;;
3663;SDS011;1848;51.042;7.066;2022-08-19T04:26:33;22.07;;;20.07;;
3663;SDS011;1848;51.042;7.066;2022-08-19T04:29:01;21.63;;;19.63;;
3663;SDS011;1848;51.042;7.066;2022-08-19T04:31:37;23.53;;;21.13;;
3663;SDS011;1848;51.042;7.066;2022-08-19T04:34:04;23.77;;;21.57;;
3663;SDS011;1848;51.042;7.066;2022-08-19T04:36:33;24.47;;;22.07;;
3663;SDS011;1848;51.042;7.066;2022-08-19T04:39:03;23.57;;;21.40;;
3663;SDS011;1848;51.042;7.066;2022-08-19T04:41:42;24.63;;;22.30;;
3663;SDS011;1848;51.042;7.066;2022-08-19T04:44:27;25.87;;;23.30;;
3663;SDS011;1848;51.042;7.066;2022-08-19T04:46:58;24.50;;;22.30;;
3663;SDS011;1848;51.042;7.066;2022-08-19T04:49:26;25.87;;;23.47;;
3663;SDS011;1848;51.042;7.066;2022-08-19T04:51:53;26.47;;;24.07;;
3663;SDS011;1848;51.042;7.066;2022-08-19T04:54:21;28.10;;;25.23;;
3663;SDS011;1848;51.042;7.066;2022-08-19T04:57:04;25.63;;;23.17;;
3663;SDS011;1848;51.042;7.066;2022-08-19T04:59:34;27.77;;;24.87;;
3663;SDS011;1848;51.042;7.066;2022-08-19T05:02:01;28.70;;;26.00;;
3663;SDS011;1848;51.042;7.066;2022-08-19T05:04:28;26.63;;;24.17;;
3663;SDS011;1848;51.042;7.066;2022-08-19T05:06:58;27.83;;;25.17;;
3663;SDS011;1848;51.042;7.066;2022-08-19T05:09:26;28.10;;;25.43;;
3663;SDS011;1848;51.042;7.066;2022-08-19T05:12:13;28.27;;;25.47;;
3663;SDS011;1848;51.042;7.066;2022-08-19T05:14:41;30.23;;;25.00;;
3663;SDS011;1848;51.042;7.066;2022-08-19T05:17:07;30.33;;;27.60;;
3663;SDS011;1848;51.042;7.066;2022-08-19T05:19:52;29.77;;;26.40;;
3663;SDS011;1848;51.042;7.066;2022-08-19T05:22:37;30.40;;;27.47;;
3663;SDS011;1848;51.042;7.066;2022-08-19T05:25:05;31.23;;;28.30;;
3663;SDS011;1848;51.042;7.066;2022-08-19T05:27:38;30.37;;;27.30;;
3663;SDS011;1848;51.042;7.066;2022-08-19T05:30:06;29.53;;;26.53;;
3663;SDS011;1848;51.042;7.066;2022-08-19T05:32:33;29.47;;;26.73;;
3663;SDS011;1848;51.042;7.066;2022-08-19T05:34:59;30.17;;;27.17;;
3663;SDS011;1848;51.042;7.066;2022-08-19T05:37:26;32.00;;;28.90;;
3663;SDS011;1848;51.042;7.066;2022-08-19T05:39:53;32.40;;;29.30;;
3663;SDS011;1848;51.042;7.066;2022-08-19T05:42:20;33.10;;;29.63;;
3663;SDS011;1848;51.042;7.066;2022-08-19T05:44:49;31.63;;;28.43;;
3663;SDS011;1848;51.042;7.066;2022-08-19T05:47:16;33.60;;;30.33;;
3663;SDS011;1848;51.042;7.066;2022-08-19T05:49:45;33.73;;;30.50;;
3663;SDS011;1848;51.042;7.066;2022-08-19T05:52:13;31.90;;;28.80;;
3663;SDS011;1848;51.042;7.066;2022-08-19T05:54:50;32.70;;;29.40;;
3663;SDS011;1848;51.042;7.066;2022-08-19T05:57:18;34.73;;;31.33;;
3663;SDS011;1848;51.042;7.066;2022-08-19T05:59:45;36.93;;;33.30;;
3663;SDS011;1848;51.042;7.066;2022-08-19T06:02:23;38.13;;;34.27;;
3663;SDS011;1848;51.042;7.066;2022-08-19T06:04:50;40.00;;;35.80;;
3663;SDS011;1848;51.042;7.066;2022-08-19T06:07:17;42.07;;;37.07;;
3663;SDS011;1848;51.042;7.066;2022-08-19T06:09:43;41.93;;;37.40;;
3663;SDS011;1848;51.042;7.066;2022-08-19T06:12:26;40.70;;;36.47;;
3663;SDS011;1848;51.042;7.066;2022-08-19T06:15:06;40.33;;;36.27;;
3663;SDS011;1848;51.042;7.066;2022-08-19T06:17:35;41.53;;;37.13;;
3663;SDS011;1848;51.042;7.066;2022-08-19T06:20:03;43.90;;;39.50;;
3663;SDS011;1848;51.042;7.066;2022-08-19T06:22:38;43.60;;;39.03;;
3663;SDS011;1848;51.042;7.066;2022-08-19T06:25:06;47.53;;;42.50;;
3663;SDS011;1848;51.042;7.066;2022-08-19T06:27:33;48.07;;;42.77;;
3663;SDS011;1848;51.042;7.066;2022-08-19T06:29:59;51.50;;;44.40;;
3663;SDS011;1848;51.042;7.066;2022-08-19T06:32:26;53.87;;;47.70;;
3663;SDS011;1848;51.042;7.066;2022-08-19T06:34:52;56.50;;;50.50;;
3663;SDS011;1848;51.042;7.066;2022-08-19T06:37:19;57.80;;;49.60;;
3663;SDS011;1848;51.042;7.066;2022-08-19T06:39:47;59.40;;;51.80;;
3663;SDS011;1848;51.042;7.066;2022-08-19T06:42:14;61.10;;;52.07;;
3663;SDS011;1848;51.042;7.066;2022-08-19T06:44:47;63.90;;;53.97;;
3663;SDS011;1848;51.042;7.066;2022-08-19T06:47:18;66.30;;;54.80;;
3663;SDS011;1848;51.042;7.066;2022-08-19T06:49:52;63.77;;;56.77;;
3663;SDS011;1848;51.042;7.066;2022-08-19T06:52:26;69.40;;;56.30;;
3663;SDS011;1848;51.042;7.066;2022-08-19T06:54:53;62.70;;;55.23;;
3663;SDS011;1848;51.042;7.066;2022-08-19T06:57:25;63.50;;;54.17;;
3663;SDS011;1848;51.042;7.066;2022-08-19T06:59:52;64.30;;;55.57;;
3663;SDS011;1848;51.042;7.066;2022-08-19T07:02:19;65.73;;;55.77;;
3663;SDS011;1848;51.042;7.066;2022-08-19T07:04:47;65.03;;;51.50;;
3663;SDS011;1848;51.042;7.066;2022-08-19T07:07:18;57.83;;;47.77;;
3663;SDS011;1848;51.042;7.066;2022-08-19T07:09:47;57.33;;;49.90;;
3663;SDS011;1848;51.042;7.066;2022-08-19T07:12:25;56.00;;;49.63;;
3663;SDS011;1848;51.042;7.066;2022-08-19T07:14:56;63.37;;;50.77;;
3663;SDS011;1848;51.042;7.066;2022-08-19T07:17:23;58.40;;;48.20;;
3663;SDS011;1848;51.042;7.066;2022-08-19T07:19:50;60.57;;;48.87;;
3663;SDS011;1848;51.042;7.066;2022-08-19T07:22:19;64.33;;;50.87;;
3663;SDS011;1848;51.042;7.066;2022-08-19T07:24:48;61.60;;;51.00;;
3663;SDS011;1848;51.042;7.066;2022-08-19T07:27:16;58.67;;;49.67;;
3663;SDS011;1848;51.042;7.066;2022-08-19T07:29:50;56.30;;;47.53;;
3663;SDS011;1848;51.042;7.066;2022-08-19T07:32:22;55.70;;;46.10;;
3663;SDS011;1848;51.042;7.066;2022-08-19T07:34:49;60.77;;;48.37;;
3663;SDS011;1848;51.042;7.066;2022-08-19T07:37:15;49.90;;;44.73;;
3663;SDS011;1848;51.042;7.066;2022-08-19T07:39:42;57.20;;;46.07;;
3663;SDS011;1848;51.042;7.066;2022-08-19T07:42:09;53.37;;;47.47;;
3663;SDS011;1848;51.042;7.066;2022-08-19T07:44:38;49.47;;;44.17;;
3663;SDS011;1848;51.042;7.066;2022-08-19T07:47:11;48.53;;;43.23;;
3663;SDS011;1848;51.042;7.066;2022-08-19T07:50:02;51.57;;;41.03;;
3663;SDS011;1848;51.042;7.066;2022-08-19T07:52:32;48.67;;;42.90;;
3663;SDS011;1848;51.042;7.066;2022-08-19T07:54:59;57.23;;;44.50;;
3663;SDS011;1848;51.042;7.066;2022-08-19T07:57:29;48.90;;;42.40;;
3663;SDS011;1848;51.042;7.066;2022-08-19T07:59:56;45.30;;;40.30;;
3663;SDS011;1848;51.042;7.066;2022-08-19T08:02:22;48.77;;;42.67;;
3663;SDS011;1848;51.042;7.066;2022-08-19T08:04:48;47.23;;;41.23;;
3663;SDS011;1848;51.042;7.066;2022-08-19T08:07:34;46.70;;;40.33;;
3663;SDS011;1848;51.042;7.066;2022-08-19T08:10:19;48.23;;;41.53;;
3663;SDS011;1848;51.042;7.066;2022-08-19T08:12:49;46.37;;;41.37;;
3663;SDS011;1848;51.042;7.066;2022-08-19T08:15:34;51.97;;;43.90;;
3663;SDS011;1848;51.042;7.066;2022-08-19T08:18:07;46.80;;;41.80;;
3663;SDS011;1848;51.042;7.066;2022-08-19T08:20:34;44.97;;;40.10;;
3663;SDS011;1848;51.042;7.066;2022-08-19T08:23:01;43.27;;;38.50;;
3663;SDS011;1848;51.042;7.066;2022-08-19T08:25:46;43.47;;;39.00;;
3663;SDS011;1848;51.042;7.066;2022-08-19T08:28:15;44.17;;;38.67;;
3663;SDS011;1848;51.042;7.066;2022-08-19T08:30:43;45.27;;;38.00;;
3663;SDS011;1848;51.042;7.066;2022-08-19T08:33:11;41.13;;;36.73;;
3663;SDS011;1848;51.042;7.066;2022-08-19T08:35:39;39.77;;;35.47;;
3663;SDS011;1848;51.042;7.066;2022-08-19T08:38:11;39.67;;;35.23;;
3663;SDS011;1848;51.042;7.066;2022-08-19T08:40:49;41.90;;;36.80;;
3663;SDS011;1848;51.042;7.066;2022-08-19T08:46:05;46.77;;;35.63;;
3663;SDS011;1848;51.042;7.066;2022-08-19T08:48:42;36.23;;;32.33;;
3663;SDS011;1848;51.042;7.066;2022-08-19T08:51:40;37.10;;;33.07;;
3663;SDS011;1848;51.042;7.066;2022-08-19T08:54:13;35.03;;;30.77;;
3663;SDS011;1848;51.042;7.066;2022-08-19T08:56:44;35.60;;;31.00;;
3663;SDS011;1848;51.042;7.066;2022-08-19T08:59:23;38.13;;;34.00;;
3663;SDS011;1848;51.042;7.066;2022-08-19T09:01:59;38.10;;;33.57;;
3663;SDS011;1848;51.042;7.066;2022-08-19T09:04:26;35.70;;;30.60;;
3663;SDS011;1848;51.042;7.066;2022-08-19T09:07:15;42.00;;;35.43;;
3663;SDS011;1848;51.042;7.066;2022-08-19T09:10:22;42.87;;;34.70;;
3663;SDS011;1848;51.042;7.066;2022-08-19T09:13:10;44.20;;;37.40;;
3663;SDS011;1848;51.042;7.066;2022-08-19T09:15:45;43.03;;;37.33;;
3663;SDS011;1848;51.042;7.066;2022-08-19T09:18:16;41.07;;;34.53;;
3663;SDS011;1848;51.042;7.066;2022-08-19T09:20:45;39.10;;;34.70;;
3663;SDS011;1848;51.042;7.066;2022-08-19T09:23:13;45.07;;;32.80;;
3663;SDS011;1848;51.042;7.066;2022-08-19T09:25:40;41.90;;;37.60;;
3663;SDS011;1848;51.042;7.066;2022-08-19T09:28:07;40.70;;;34.80;;
3663;SDS011;1848;51.042;7.066;2022-08-19T09:30:47;45.37;;;40.47;;
3663;SDS011;1848;51.042;7.066;2022-08-19T09:33:14;47.63;;;40.40;;
3663;SDS011;1848;51.042;7.066;2022-08-19T09:35:42;44.87;;;39.97;;
3663;SDS011;1848;51.042;7.066;2022-08-19T09:38:18;45.33;;;38.10;;
3663;SDS011;1848;51.042;7.066;2022-08-19T09:40:46;37.67;;;33.67;;
3663;SDS011;1848;51.042;7.066;2022-08-19T09:43:12;43.33;;;37.80;;
3663;SDS011;1848;51.042;7.066;2022-08-19T09:45:38;40.07;;;35.77;;
3663;SDS011;1848;51.042;7.066;2022-08-19T09:48:05;38.33;;;33.70;;
3663;SDS011;1848;51.042;7.066;2022-08-19T09:50:32;40.90;;;36.60;;
3663;SDS011;1848;51.042;7.066;2022-08-19T09:53:00;46.83;;;37.10;;
3663;SDS011;1848;51.042;7.066;2022-08-19T09:55:26;40.73;;;36.20;;
3663;SDS011;1848;51.042;7.066;2022-08-19T09:57:58;41.37;;;36.97;;
3663;SDS011;1848;51.042;7.066;2022-08-19T10:00:28;42.67;;;36.03;;
3663;SDS011;1848;51.042;7.066;2022-08-19T10:02:55;39.63;;;32.90;;
3663;SDS011;1848;51.042;7.066;2022-08-19T10:05:21;35.47;;;31.57;;
3663;SDS011;1848;51.042;7.066;2022-08-19T10:08:22;41.63;;;31.70;;
3663;SDS011;1848;51.042;7.066;2022-08-19T10:10:52;33.40;;;29.87;;
3663;SDS011;1848;51.042;7.066;2022-08-19T10:13:22;31.20;;;27.87;;
3663;SDS011;1848;51.042;7.066;2022-08-19T10:15:53;32.37;;;28.97;;
3663;SDS011;1848;51.042;7.066;2022-08-19T10:18:22;29.00;;;25.27;;
3663;SDS011;1848;51.042;7.066;2022-08-19T10:20:51;26.67;;;24.00;;
3663;SDS011;1848;51.042;7.066;2022-08-19T10:23:20;28.17;;;25.43;;
3663;SDS011;1848;51.042;7.066;2022-08-19T10:25:47;27.80;;;24.80;;
3663;SDS011;1848;51.042;7.066;2022-08-19T10:28:14;30.43;;;26.80;;
3663;SDS011;1848;51.042;7.066;2022-08-19T10:30:44;27.20;;;24.37;;
3663;SDS011;1848;51.042;7.066;2022-08-19T10:33:11;27.80;;;25.10;;
3663;SDS011;1848;51.042;7.066;2022-08-19T10:35:37;29.60;;;26.40;;
3663;SDS011;1848;51.042;7.066;2022-08-19T10:38:22;26.93;;;24.03;;
3663;SDS011;1848;51.042;7.066;2022-08-19T10:40:58;28.37;;;23.60;;
3663;SDS011;1848;51.042;7.066;2022-08-19T10:43:32;25.20;;;22.63;;
3663;SDS011;1848;51.042;7.066;2022-08-19T10:46:03;20.90;;;19.00;;
3663;SDS011;1848;51.042;7.066;2022-08-19T10:48:39;23.30;;;21.10;;
3663;SDS011;1848;51.042;7.066;2022-08-19T10:51:07;27.93;;;25.03;;
3663;SDS011;1848;51.042;7.066;2022-08-19T10:53:52;22.17;;;20.07;;
3663;SDS011;1848;51.042;7.066;2022-08-19T10:56:19;22.20;;;20.10;;
3663;SDS011;1848;51.042;7.066;2022-08-19T10:59:04;25.43;;;22.90;;
3663;SDS011;1848;51.042;7.066;2022-08-19T11:01:31;23.93;;;21.53;;
3663;SDS011;1848;51.042;7.066;2022-08-19T11:04:00;23.17;;;21.07;;
3663;SDS011;1848;51.042;7.066;2022-08-19T11:06:28;25.70;;;23.07;;
3663;SDS011;1848;51.042;7.066;2022-08-19T11:08:56;22.40;;;20.20;;
3663;SDS011;1848;51.042;7.066;2022-08-19T11:11:23;21.23;;;19.13;;
3663;SDS011;1848;51.042;7.066;2022-08-19T11:13:50;23.07;;;17.50;;
3663;SDS011;1848;51.042;7.066;2022-08-19T11:16:17;20.83;;;18.40;;
3663;SDS011;1848;51.042;7.066;2022-08-19T11:18:47;20.10;;;18.07;;
3663;SDS011;1848;51.042;7.066;2022-08-19T11:21:18;21.33;;;19.20;;
3663;SDS011;1848;51.042;7.066;2022-08-19T11:23:46;19.33;;;17.33;;
3663;SDS011;1848;51.042;7.066;2022-08-19T11:26:14;19.03;;;17.03;;
3663;SDS011;1848;51.042;7.066;2022-08-19T11:28:41;16.67;;;15.07;;
3663;SDS011;1848;51.042;7.066;2022-08-19T11:31:09;18.20;;;16.50;;
3663;SDS011;1848;51.042;7.066;2022-08-19T11:33:43;18.93;;;17.30;;
3663;SDS011;1848;51.042;7.066;2022-08-19T11:36:13;19.33;;;17.63;;
3663;SDS011;1848;51.042;7.066;2022-08-19T11:38:40;19.20;;;17.20;;
3663;SDS011;1848;51.042;7.066;2022-08-19T11:41:07;20.30;;;18.40;;
3663;SDS011;1848;51.042;7.066;2022-08-19T11:43:34;21.40;;;19.37;;
3663;SDS011;1848;51.042;7.066;2022-08-19T11:46:04;21.17;;;18.67;;
3663;SDS011;1848;51.042;7.066;2022-08-19T11:48:33;22.67;;;20.30;;
3663;SDS011;1848;51.042;7.066;2022-08-19T11:51:02;20.47;;;18.47;;
3663;SDS011;1848;51.042;7.066;2022-08-19T11:53:32;19.17;;;17.37;;
3663;SDS011;1848;51.042;7.066;2022-08-19T11:56:00;19.07;;;17.27;;
3663;SDS011;1848;51.042;7.066;2022-08-19T11:58:26;20.00;;;18.20;;
3663;SDS011;1848;51.042;7.066;2022-08-19T12:00:53;17.47;;;16.07;;
3663;SDS011;1848;51.042;7.066;2022-08-19T12:03:19;18.10;;;16.60;;
3663;SDS011;1848;51.042;7.066;2022-08-19T12:05:46;18.20;;;16.70;;
3663;SDS011;1848;51.042;7.066;2022-08-19T12:08:12;18.17;;;16.67;;
3663;SDS011;1848;51.042;7.066;2022-08-19T12:10:39;18.43;;;16.93;;
3663;SDS011;1848;51.042;7.066;2022-08-19T12:13:11;17.53;;;16.13;;
3663;SDS011;1848;51.042;7.066;2022-08-19T12:15:41;17.93;;;16.33;;
3663;SDS011;1848;51.042;7.066;2022-08-19T12:18:08;18.23;;;16.53;;
3663;SDS011;1848;51.042;7.066;2022-08-19T12:20:35;17.43;;;16.03;;
3663;SDS011;1848;51.042;7.066;2022-08-19T12:23:04;17.60;;;16.10;;
3663;SDS011;1848;51.042;7.066;2022-08-19T12:25:32;20.63;;;16.17;;
3663;SDS011;1848;51.042;7.066;2022-08-19T12:27:59;16.07;;;14.53;;
3663;SDS011;1848;51.042;7.066;2022-08-19T12:30:25;15.60;;;14.10;;
3663;SDS011;1848;51.042;7.066;2022-08-19T12:32:52;17.27;;;15.57;;
3663;SDS011;1848;51.042;7.066;2022-08-19T12:35:19;14.23;;;13.10;;
3663;SDS011;1848;51.042;7.066;2022-08-19T12:37:47;13.73;;;12.63;;
3663;SDS011;1848;51.042;7.066;2022-08-19T12:40:22;15.20;;;13.80;;
3663;SDS011;1848;51.042;7.066;2022-08-19T12:42:51;13.80;;;12.70;;
3663;SDS011;1848;51.042;7.066;2022-08-19T12:45:18;14.30;;;12.90;;
3663;SDS011;1848;51.042;7.066;2022-08-19T12:47:45;13.03;;;11.83;;
3663;SDS011;1848;51.042;7.066;2022-08-19T12:50:13;12.23;;;11.33;;
3663;SDS011;1848;51.042;7.066;2022-08-19T12:52:39;14.30;;;12.90;;
3663;SDS011;1848;51.042;7.066;2022-08-19T12:55:08;14.10;;;11.27;;
3663;SDS011;1848;51.042;7.066;2022-08-19T12:57:35;11.47;;;10.57;;
3663;SDS011;1848;51.042;7.066;2022-08-19T13:00:11;13.43;;;12.43;;
3663;SDS011;1848;51.042;7.066;2022-08-19T13:02:41;12.63;;;11.23;;
3663;SDS011;1848;51.042;7.066;2022-08-19T13:05:11;12.67;;;11.57;;
3663;SDS011;1848;51.042;7.066;2022-08-19T13:07:42;13.10;;;11.60;;
3663;SDS011;1848;51.042;7.066;2022-08-19T13:10:10;13.70;;;11.77;;
3663;SDS011;1848;51.042;7.066;2022-08-19T13:12:40;14.27;;;13.00;;
3663;SDS011;1848;51.042;7.066;2022-08-19T13:15:07;12.93;;;11.80;;
3663;SDS011;1848;51.042;7.066;2022-08-19T13:17:36;13.40;;;11.57;;
3663;SDS011;1848;51.042;7.066;2022-08-19T13:20:04;12.67;;;11.37;;
3663;SDS011;1848;51.042;7.066;2022-08-19T13:22:33;12.03;;;10.90;;
3663;SDS011;1848;51.042;7.066;2022-08-19T13:25:02;12.57;;;10.67;;
3663;SDS011;1848;51.042;7.066;2022-08-19T13:27:29;11.93;;;10.93;;
3663;SDS011;1848;51.042;7.066;2022-08-19T13:29:56;11.77;;;10.57;;
3663;SDS011;1848;51.042;7.066;2022-08-19T13:32:41;13.43;;;12.13;;
3663;SDS011;1848;51.042;7.066;2022-08-19T13:35:26;12.87;;;11.73;;
3663;SDS011;1848;51.042;7.066;2022-08-19T13:37:52;13.40;;;12.00;;
3663;SDS011;1848;51.042;7.066;2022-08-19T13:40:20;14.20;;;10.97;;
3663;SDS011;1848;51.042;7.066;2022-08-19T13:42:51;12.30;;;11.20;;
3663;SDS011;1848;51.042;7.066;2022-08-19T13:45:20;12.20;;;11.10;;
3663;SDS011;1848;51.042;7.066;2022-08-19T13:47:49;13.37;;;12.27;;
3663;SDS011;1848;51.042;7.066;2022-08-19T13:50:25;13.50;;;11.70;;
3663;SDS011;1848;51.042;7.066;2022-08-19T13:52:54;11.87;;;10.77;;
3663;SDS011;1848;51.042;7.066;2022-08-19T13:55:21;13.73;;;10.10;;
3663;SDS011;1848;51.042;7.066;2022-08-19T13:57:54;11.87;;;10.77;;
3663;SDS011;1848;51.042;7.066;2022-08-19T14:00:23;9.87;;;8.87;;
3663;SDS011;1848;51.042;7.066;2022-08-19T14:02:53;9.73;;;8.83;;
3663;SDS011;1848;51.042;7.066;2022-08-19T14:05:22;9.10;;;8.47;;
3663;SDS011;1848;51.042;7.066;2022-08-19T14:07:49;9.03;;;8.33;;
3663;SDS011;1848;51.042;7.066;2022-08-19T14:10:17;10.80;;;9.73;;
3663;SDS011;1848;51.042;7.066;2022-08-19T14:12:45;10.07;;;9.07;;
3663;SDS011;1848;51.042;7.066;2022-08-19T14:15:12;10.17;;;9.27;;
3663;SDS011;1848;51.042;7.066;2022-08-19T14:17:40;9.30;;;8.37;;
3663;SDS011;1848;51.042;7.066;2022-08-19T14:20:09;13.37;;;9.00;;
3663;SDS011;1848;51.042;7.066;2022-08-19T14:22:43;9.53;;;8.17;;
3663;SDS011;1848;51.042;7.066;2022-08-19T14:25:13;9.70;;;7.80;;
3663;SDS011;1848;51.042;7.066;2022-08-19T14:27:44;12.50;;;8.43;;
3663;SDS011;1848;51.042;7.066;2022-08-19T14:30:12;9.50;;;8.33;;
3663;SDS011;1848;51.042;7.066;2022-08-19T14:32:44;9.10;;;8.20;;
3663;SDS011;1848;51.042;7.066;2022-08-19T14:35:11;8.90;;;8.20;;
3663;SDS011;1848;51.042;7.066;2022-08-19T14:37:40;8.73;;;8.03;;
3663;SDS011;1848;51.042;7.066;2022-08-19T14:40:22;9.47;;;8.77;;
3663;SDS011;1848;51.042;7.066;2022-08-19T14:42:52;9.87;;;9.07;;
3663;SDS011;1848;51.042;7.066;2022-08-19T14:45:21;9.33;;;8.63;;
3663;SDS011;1848;51.042;7.066;2022-08-19T14:47:48;10.20;;;8.00;;
3663;SDS011;1848;51.042;7.066;2022-08-19T14:50:14;8.73;;;8.03;;
3663;SDS011;1848;51.042;7.066;2022-08-19T14:52:44;10.83;;;8.30;;
3663;SDS011;1848;51.042;7.066;2022-08-19T14:55:14;8.60;;;7.80;;
3663;SDS011;1848;51.042;7.066;2022-08-19T14:57:41;9.43;;;8.33;;
3663;SDS011;1848;51.042;7.066;2022-08-19T15:00:09;10.07;;;7.40;;
3663;SDS011;1848;51.042;7.066;2022-08-19T15:02:40;7.77;;;6.90;;
3663;SDS011;1848;51.042;7.066;2022-08-19T15:05:07;7.67;;;7.07;;
3663;SDS011;1848;51.042;7.066;2022-08-19T15:07:34;9.50;;;7.63;;
3663;SDS011;1848;51.042;7.066;2022-08-19T15:10:02;7.30;;;6.70;;
3663;SDS011;1848;51.042;7.066;2022-08-19T15:12:29;7.90;;;7.07;;
3663;SDS011;1848;51.042;7.066;2022-08-19T15:14:56;7.93;;;7.27;;